sensor_id;sensor_type;location;lat;lon;timestamp;temperature;humidity
68977;SHT31;56029;52.568;13.588;2023-04-22T00:00:22;7.59;84.29
68977;SHT31;56029;52.568;13.588;2023-04-22T00:03:08;7.57;84.08
68977;SHT31;56029;52.568;13.588;2023-04-22T00:05:34;7.50;84.21
68977;SHT31;56029;52.568;13.588;2023-04-22T00:07:59;7.46;84.62
68977;SHT31;56029;52.568;13.588;2023-04-22T00:10:26;7.39;85.18
68977;SHT31;56029;52.568;13.588;2023-04-22T00:12:51;7.37;86.06
68977;SHT31;56029;52.568;13.588;2023-04-22T00:15:17;7.37;85.73
68977;SHT31;56029;52.568;13.588;2023-04-22T00:17:49;7.34;85.87
68977;SHT31;56029;52.568;13.588;2023-04-22T00:20:16;7.32;86.27
68977;SHT31;56029;52.568;13.588;2023-04-22T00:22:41;7.24;86.17
68977;SHT31;56029;52.568;13.588;2023-04-22T00:25:07;7.19;85.83
68977;SHT31;56029;52.568;13.588;2023-04-22T00:27:33;7.09;86.00
68977;SHT31;56029;52.568;13.588;2023-04-22T00:29:58;7.02;86.58
68977;SHT31;56029;52.568;13.588;2023-04-22T00:32:24;6.96;86.14
68977;SHT31;56029;52.568;13.588;2023-04-22T00:34:50;6.94;86.04
68977;SHT31;56029;52.568;13.588;2023-04-22T00:37:16;6.87;86.39
68977;SHT31;56029;52.568;13.588;2023-04-22T00:39:41;6.73;86.49
68977;SHT31;56029;52.568;13.588;2023-04-22T00:42:07;6.65;86.88
68977;SHT31;56029;52.568;13.588;2023-04-22T00:44:34;6.64;86.81
68977;SHT31;56029;52.568;13.588;2023-04-22T00:47:00;6.61;86.96
68977;SHT31;56029;52.568;13.588;2023-04-22T00:49:26;6.61;87.24
68977;SHT31;56029;52.568;13.588;2023-04-22T00:51:52;6.61;87.35
68977;SHT31;56029;52.568;13.588;2023-04-22T00:54:18;6.58;86.73
68977;SHT31;56029;52.568;13.588;2023-04-22T00:56:44;6.48;86.82
68977;SHT31;56029;52.568;13.588;2023-04-22T00:59:10;6.43;87.01
68977;SHT31;56029;52.568;13.588;2023-04-22T01:01:36;6.38;86.95
68977;SHT31;56029;52.568;13.588;2023-04-22T01:04:03;6.38;86.97
68977;SHT31;56029;52.568;13.588;2023-04-22T01:06:29;6.41;87.97
68977;SHT31;56029;52.568;13.588;2023-04-22T01:08:56;6.37;87.93
68977;SHT31;56029;52.568;13.588;2023-04-22T01:11:21;6.40;87.60
68977;SHT31;56029;52.568;13.588;2023-04-22T01:13:47;6.36;87.06
68977;SHT31;56029;52.568;13.588;2023-04-22T01:16:13;6.36;86.87
68977;SHT31;56029;52.568;13.588;2023-04-22T01:18:38;6.32;87.13
68977;SHT31;56029;52.568;13.588;2023-04-22T01:21:04;6.34;87.40
68977;SHT31;56029;52.568;13.588;2023-04-22T01:23:30;6.30;87.36
68977;SHT31;56029;52.568;13.588;2023-04-22T01:25:56;6.32;87.58
68977;SHT31;56029;52.568;13.588;2023-04-22T01:28:22;6.29;87.70
68977;SHT31;56029;52.568;13.588;2023-04-22T01:30:48;6.24;87.61
68977;SHT31;56029;52.568;13.588;2023-04-22T01:33:15;6.23;87.92
68977;SHT31;56029;52.568;13.588;2023-04-22T01:35:40;6.24;88.54
68977;SHT31;56029;52.568;13.588;2023-04-22T01:38:08;6.20;88.56
68977;SHT31;56029;52.568;13.588;2023-04-22T01:40:34;6.22;88.47
68977;SHT31;56029;52.568;13.588;2023-04-22T01:43:00;6.20;88.70
68977;SHT31;56029;52.568;13.588;2023-04-22T01:45:26;6.23;88.60
68977;SHT31;56029;52.568;13.588;2023-04-22T01:47:52;6.22;88.96
68977;SHT31;56029;52.568;13.588;2023-04-22T01:50:19;6.17;88.85
68977;SHT31;56029;52.568;13.588;2023-04-22T01:52:44;6.17;88.79
68977;SHT31;56029;52.568;13.588;2023-04-22T01:55:10;6.20;89.46
68977;SHT31;56029;52.568;13.588;2023-04-22T01:57:36;6.19;89.44
68977;SHT31;56029;52.568;13.588;2023-04-22T02:00:02;6.12;89.61
68977;SHT31;56029;52.568;13.588;2023-04-22T02:02:28;6.09;89.76
68977;SHT31;56029;52.568;13.588;2023-04-22T02:04:53;6.06;89.62
68977;SHT31;56029;52.568;13.588;2023-04-22T02:07:19;6.02;88.87
68977;SHT31;56029;52.568;13.588;2023-04-22T02:09:44;6.06;88.67
68977;SHT31;56029;52.568;13.588;2023-04-22T02:12:10;6.01;88.17
68977;SHT31;56029;52.568;13.588;2023-04-22T02:14:35;6.01;88.82
68977;SHT31;56029;52.568;13.588;2023-04-22T02:17:01;6.01;88.57
68977;SHT31;56029;52.568;13.588;2023-04-22T02:19:27;5.99;87.68
68977;SHT31;56029;52.568;13.588;2023-04-22T02:21:53;6.01;88.25
68977;SHT31;56029;52.568;13.588;2023-04-22T02:24:19;6.01;88.11
68977;SHT31;56029;52.568;13.588;2023-04-22T02:26:44;5.99;88.36
68977;SHT31;56029;52.568;13.588;2023-04-22T02:29:12;5.98;87.64
68977;SHT31;56029;52.568;13.588;2023-04-22T02:31:37;5.96;87.64
68977;SHT31;56029;52.568;13.588;2023-04-22T02:34:03;5.96;86.84
68977;SHT31;56029;52.568;13.588;2023-04-22T02:36:29;6.02;87.48
68977;SHT31;56029;52.568;13.588;2023-04-22T02:38:56;6.02;87.56
68977;SHT31;56029;52.568;13.588;2023-04-22T02:41:22;6.02;86.48
68977;SHT31;56029;52.568;13.588;2023-04-22T02:43:47;5.99;87.50
68977;SHT31;56029;52.568;13.588;2023-04-22T02:46:13;5.96;87.78
68977;SHT31;56029;52.568;13.588;2023-04-22T02:48:41;5.96;87.35
68977;SHT31;56029;52.568;13.588;2023-04-22T02:51:07;5.91;87.93
68977;SHT31;56029;52.568;13.588;2023-04-22T02:53:33;5.91;87.93
68977;SHT31;56029;52.568;13.588;2023-04-22T02:55:58;5.89;88.10
68977;SHT31;56029;52.568;13.588;2023-04-22T02:58:24;5.89;88.45
68977;SHT31;56029;52.568;13.588;2023-04-22T03:00:51;5.86;88.53
68977;SHT31;56029;52.568;13.588;2023-04-22T03:03:17;5.85;87.94
68977;SHT31;56029;52.568;13.588;2023-04-22T03:05:42;5.82;88.36
68977;SHT31;56029;52.568;13.588;2023-04-22T03:08:08;5.81;88.89
68977;SHT31;56029;52.568;13.588;2023-04-22T03:10:34;5.81;88.28
68977;SHT31;56029;52.568;13.588;2023-04-22T03:12:59;5.76;88.95
68977;SHT31;56029;52.568;13.588;2023-04-22T03:15:25;5.76;88.93
68977;SHT31;56029;52.568;13.588;2023-04-22T03:17:50;5.75;89.97
68977;SHT31;56029;52.568;13.588;2023-04-22T03:20:16;5.72;89.25
68977;SHT31;56029;52.568;13.588;2023-04-22T03:22:41;5.72;89.67
68977;SHT31;56029;52.568;13.588;2023-04-22T03:25:09;5.69;89.14
68977;SHT31;56029;52.568;13.588;2023-04-22T03:27:35;5.65;89.13
68977;SHT31;56029;52.568;13.588;2023-04-22T03:30:01;5.65;89.75
68977;SHT31;56029;52.568;13.588;2023-04-22T03:32:26;5.61;90.12
68977;SHT31;56029;52.568;13.588;2023-04-22T03:34:52;5.57;89.99
68977;SHT31;56029;52.568;13.588;2023-04-22T03:37:17;5.50;89.45
68977;SHT31;56029;52.568;13.588;2023-04-22T03:39:43;5.45;89.92
68977;SHT31;56029;52.568;13.588;2023-04-22T03:42:09;5.38;89.95
68977;SHT31;56029;52.568;13.588;2023-04-22T03:44:35;5.38;90.21
68977;SHT31;56029;52.568;13.588;2023-04-22T03:47:00;5.37;90.70
68977;SHT31;56029;52.568;13.588;2023-04-22T03:49:26;5.36;91.09
68977;SHT31;56029;52.568;13.588;2023-04-22T03:51:51;5.30;90.73
68977;SHT31;56029;52.568;13.588;2023-04-22T03:54:18;5.30;90.44
68977;SHT31;56029;52.568;13.588;2023-04-22T03:56:44;5.28;90.20
68977;SHT31;56029;52.568;13.588;2023-04-22T03:59:10;5.24;90.60
68977;SHT31;56029;52.568;13.588;2023-04-22T04:01:35;5.28;91.09
68977;SHT31;56029;52.568;13.588;2023-04-22T04:04:01;5.30;90.90
68977;SHT31;56029;52.568;13.588;2023-04-22T04:06:27;5.24;90.74
68977;SHT31;56029;52.568;13.588;2023-04-22T04:08:52;5.22;90.28
68977;SHT31;56029;52.568;13.588;2023-04-22T04:11:18;5.23;90.40
68977;SHT31;56029;52.568;13.588;2023-04-22T04:13:43;5.26;90.43
68977;SHT31;56029;52.568;13.588;2023-04-22T04:16:09;5.33;90.32
68977;SHT31;56029;52.568;13.588;2023-04-22T04:18:35;5.52;90.18
68977;SHT31;56029;52.568;13.588;2023-04-22T04:21:01;5.72;89.77
68977;SHT31;56029;52.568;13.588;2023-04-22T04:23:26;5.94;89.22
68977;SHT31;56029;52.568;13.588;2023-04-22T04:25:52;6.09;88.24
68977;SHT31;56029;52.568;13.588;2023-04-22T04:28:18;6.22;87.55
68977;SHT31;56029;52.568;13.588;2023-04-22T04:30:44;6.26;87.28
68977;SHT31;56029;52.568;13.588;2023-04-22T04:33:09;6.30;86.89
68977;SHT31;56029;52.568;13.588;2023-04-22T04:35:36;6.24;87.47
68977;SHT31;56029;52.568;13.588;2023-04-22T04:38:03;6.23;87.39
68977;SHT31;56029;52.568;13.588;2023-04-22T04:40:29;6.30;87.14
68977;SHT31;56029;52.568;13.588;2023-04-22T04:42:56;6.36;87.03
68977;SHT31;56029;52.568;13.588;2023-04-22T04:45:27;6.45;86.63
68977;SHT31;56029;52.568;13.588;2023-04-22T04:47:54;6.48;87.40
68977;SHT31;56029;52.568;13.588;2023-04-22T04:50:20;6.51;86.98
68977;SHT31;56029;52.568;13.588;2023-04-22T04:52:46;6.51;86.42
68977;SHT31;56029;52.568;13.588;2023-04-22T04:55:15;6.61;86.37
68977;SHT31;56029;52.568;13.588;2023-04-22T04:57:44;6.67;86.28
68977;SHT31;56029;52.568;13.588;2023-04-22T05:00:10;6.77;85.88
68977;SHT31;56029;52.568;13.588;2023-04-22T05:02:36;6.81;85.78
68977;SHT31;56029;52.568;13.588;2023-04-22T05:05:02;6.87;86.04
68977;SHT31;56029;52.568;13.588;2023-04-22T05:07:27;7.11;84.96
68977;SHT31;56029;52.568;13.588;2023-04-22T05:09:53;7.26;84.44
68977;SHT31;56029;52.568;13.588;2023-04-22T05:12:18;7.34;84.12
68977;SHT31;56029;52.568;13.588;2023-04-22T05:14:44;7.37;84.26
68977;SHT31;56029;52.568;13.588;2023-04-22T05:17:11;7.46;84.12
68977;SHT31;56029;52.568;13.588;2023-04-22T05:19:37;7.53;83.85
68977;SHT31;56029;52.568;13.588;2023-04-22T05:22:03;7.63;83.80
68977;SHT31;56029;52.568;13.588;2023-04-22T05:24:28;7.70;83.71
68977;SHT31;56029;52.568;13.588;2023-04-22T05:26:54;7.78;83.93
68977;SHT31;56029;52.568;13.588;2023-04-22T05:29:19;7.88;83.59
68977;SHT31;56029;52.568;13.588;2023-04-22T05:31:45;7.98;83.49
68977;SHT31;56029;52.568;13.588;2023-04-22T05:34:10;8.05;83.65
68977;SHT31;56029;52.568;13.588;2023-04-22T05:36:37;8.12;84.11
68977;SHT31;56029;52.568;13.588;2023-04-22T05:39:02;8.21;83.92
68977;SHT31;56029;52.568;13.588;2023-04-22T05:41:28;8.38;81.96
68977;SHT31;56029;52.568;13.588;2023-04-22T05:43:54;8.52;82.10
68977;SHT31;56029;52.568;13.588;2023-04-22T05:46:19;8.59;81.80
68977;SHT31;56029;52.568;13.588;2023-04-22T05:48:45;8.77;81.34
68977;SHT31;56029;52.568;13.588;2023-04-22T05:51:10;8.90;81.04
68977;SHT31;56029;52.568;13.588;2023-04-22T05:53:36;9.00;80.56
68977;SHT31;56029;52.568;13.588;2023-04-22T05:56:02;9.11;80.56
68977;SHT31;56029;52.568;13.588;2023-04-22T05:58:27;9.22;80.31
68977;SHT31;56029;52.568;13.588;2023-04-22T06:00:53;9.32;80.71
68977;SHT31;56029;52.568;13.588;2023-04-22T06:03:18;9.45;79.69
68977;SHT31;56029;52.568;13.588;2023-04-22T06:05:44;9.59;79.33
68977;SHT31;56029;52.568;13.588;2023-04-22T06:08:09;9.70;79.10
68977;SHT31;56029;52.568;13.588;2023-04-22T06:10:35;9.80;79.86
68977;SHT31;56029;52.568;13.588;2023-04-22T06:13:00;9.87;80.14
68977;SHT31;56029;52.568;13.588;2023-04-22T06:15:27;9.98;78.92
68977;SHT31;56029;52.568;13.588;2023-04-22T06:17:53;10.06;79.09
68977;SHT31;56029;52.568;13.588;2023-04-22T06:20:18;10.21;77.62
68977;SHT31;56029;52.568;13.588;2023-04-22T06:22:44;10.33;76.87
68977;SHT31;56029;52.568;13.588;2023-04-22T06:25:10;10.38;76.90
68977;SHT31;56029;52.568;13.588;2023-04-22T06:27:35;10.52;74.72
68977;SHT31;56029;52.568;13.588;2023-04-22T06:30:03;10.72;73.50
68977;SHT31;56029;52.568;13.588;2023-04-22T06:32:29;10.89;73.36
68977;SHT31;56029;52.568;13.588;2023-04-22T06:34:54;10.95;73.95
68977;SHT31;56029;52.568;13.588;2023-04-22T06:37:20;11.07;72.37
68977;SHT31;56029;52.568;13.588;2023-04-22T06:39:46;11.26;71.76
68977;SHT31;56029;52.568;13.588;2023-04-22T06:42:11;11.27;72.81
68977;SHT31;56029;52.568;13.588;2023-04-22T06:44:37;11.35;72.10
68977;SHT31;56029;52.568;13.588;2023-04-22T06:47:02;11.47;70.88
68977;SHT31;56029;52.568;13.588;2023-04-22T06:49:28;11.60;71.32
68977;SHT31;56029;52.568;13.588;2023-04-22T06:51:53;11.72;70.99
68977;SHT31;56029;52.568;13.588;2023-04-22T06:54:19;11.82;70.71
68977;SHT31;56029;52.568;13.588;2023-04-22T06:56:45;11.88;71.56
68977;SHT31;56029;52.568;13.588;2023-04-22T06:59:11;11.98;70.74
68977;SHT31;56029;52.568;13.588;2023-04-22T07:01:36;12.08;70.56
68977;SHT31;56029;52.568;13.588;2023-04-22T07:04:02;12.16;70.07
68977;SHT31;56029;52.568;13.588;2023-04-22T07:06:27;12.22;70.86
68977;SHT31;56029;52.568;13.588;2023-04-22T07:08:53;12.34;70.46
68977;SHT31;56029;52.568;13.588;2023-04-22T07:11:19;12.44;69.72
68977;SHT31;56029;52.568;13.588;2023-04-22T07:13:45;12.54;69.53
68977;SHT31;56029;52.568;13.588;2023-04-22T07:16:11;12.59;69.36
68977;SHT31;56029;52.568;13.588;2023-04-22T07:18:36;12.67;68.87
68977;SHT31;56029;52.568;13.588;2023-04-22T07:21:04;12.73;68.42
68977;SHT31;56029;52.568;13.588;2023-04-22T07:23:30;12.88;67.34
68977;SHT31;56029;52.568;13.588;2023-04-22T07:25:55;13.01;68.54
68977;SHT31;56029;52.568;13.588;2023-04-22T07:28:21;13.07;68.98
68977;SHT31;56029;52.568;13.588;2023-04-22T07:30:47;13.16;68.73
68977;SHT31;56029;52.568;13.588;2023-04-22T07:33:13;13.28;67.68
68977;SHT31;56029;52.568;13.588;2023-04-22T07:35:38;13.38;67.48
68977;SHT31;56029;52.568;13.588;2023-04-22T07:38:04;13.45;68.48
68977;SHT31;56029;52.568;13.588;2023-04-22T07:40:30;13.57;66.71
68977;SHT31;56029;52.568;13.588;2023-04-22T07:42:55;13.66;66.11
68977;SHT31;56029;52.568;13.588;2023-04-22T07:45:21;13.78;65.17
68977;SHT31;56029;52.568;13.588;2023-04-22T07:47:47;13.86;65.19
68977;SHT31;56029;52.568;13.588;2023-04-22T07:50:12;13.88;66.37
68977;SHT31;56029;52.568;13.588;2023-04-22T07:52:38;13.97;64.86
68977;SHT31;56029;52.568;13.588;2023-04-22T07:55:04;14.10;65.13
68977;SHT31;56029;52.568;13.588;2023-04-22T07:57:29;14.18;65.91
68977;SHT31;56029;52.568;13.588;2023-04-22T07:59:56;14.27;64.90
68977;SHT31;56029;52.568;13.588;2023-04-22T08:02:22;14.38;65.31
68977;SHT31;56029;52.568;13.588;2023-04-22T08:04:48;14.42;64.14
68977;SHT31;56029;52.568;13.588;2023-04-22T08:07:14;14.46;65.39
68977;SHT31;56029;52.568;13.588;2023-04-22T08:09:39;14.49;65.69
68977;SHT31;56029;52.568;13.588;2023-04-22T08:12:05;14.59;65.10
68977;SHT31;56029;52.568;13.588;2023-04-22T08:14:30;14.68;66.23
68977;SHT31;56029;52.568;13.588;2023-04-22T08:16:56;14.75;64.65
68977;SHT31;56029;52.568;13.588;2023-04-22T08:19:21;14.80;64.51
68977;SHT31;56029;52.568;13.588;2023-04-22T08:21:47;14.96;64.38
68977;SHT31;56029;52.568;13.588;2023-04-22T08:24:13;15.13;62.73
68977;SHT31;56029;52.568;13.588;2023-04-22T08:26:39;15.26;62.65
68977;SHT31;56029;52.568;13.588;2023-04-22T08:29:05;15.30;63.29
68977;SHT31;56029;52.568;13.588;2023-04-22T08:31:33;15.41;63.44
68977;SHT31;56029;52.568;13.588;2023-04-22T08:33:58;15.52;62.66
68977;SHT31;56029;52.568;13.588;2023-04-22T08:36:24;15.68;61.15
68977;SHT31;56029;52.568;13.588;2023-04-22T08:38:51;15.85;60.87
68977;SHT31;56029;52.568;13.588;2023-04-22T08:41:17;15.96;62.02
68977;SHT31;56029;52.568;13.588;2023-04-22T08:43:44;16.10;61.00
68977;SHT31;56029;52.568;13.588;2023-04-22T08:46:11;16.23;60.38
68977;SHT31;56029;52.568;13.588;2023-04-22T08:48:36;16.23;61.05
68977;SHT31;56029;52.568;13.588;2023-04-22T08:51:02;16.36;58.84
68977;SHT31;56029;52.568;13.588;2023-04-22T08:53:29;16.46;61.19
68977;SHT31;56029;52.568;13.588;2023-04-22T08:55:55;16.58;59.11
68977;SHT31;56029;52.568;13.588;2023-04-22T08:58:22;16.72;59.10
68977;SHT31;56029;52.568;13.588;2023-04-22T09:00:48;16.77;57.81
68977;SHT31;56029;52.568;13.588;2023-04-22T09:03:14;16.92;56.25
68977;SHT31;56029;52.568;13.588;2023-04-22T09:05:40;17.01;56.22
68977;SHT31;56029;52.568;13.588;2023-04-22T09:08:06;17.05;56.86
68977;SHT31;56029;52.568;13.588;2023-04-22T09:10:35;17.19;56.32
68977;SHT31;56029;52.568;13.588;2023-04-22T09:13:02;17.28;57.29
68977;SHT31;56029;52.568;13.588;2023-04-22T09:15:29;17.33;56.53
68977;SHT31;56029;52.568;13.588;2023-04-22T09:17:54;17.42;56.50
68977;SHT31;56029;52.568;13.588;2023-04-22T09:20:26;17.57;55.56
68977;SHT31;56029;52.568;13.588;2023-04-22T09:22:52;17.66;54.80
68977;SHT31;56029;52.568;13.588;2023-04-22T09:25:25;17.69;56.73
68977;SHT31;56029;52.568;13.588;2023-04-22T09:27:55;17.70;55.97
68977;SHT31;56029;52.568;13.588;2023-04-22T09:30:23;17.80;55.30
68977;SHT31;56029;52.568;13.588;2023-04-22T09:32:53;17.94;55.40
68977;SHT31;56029;52.568;13.588;2023-04-22T09:37:51;18.12;53.24
68977;SHT31;56029;52.568;13.588;2023-04-22T09:40:17;18.25;55.25
68977;SHT31;56029;52.568;13.588;2023-04-22T09:42:48;18.25;54.49
68977;SHT31;56029;52.568;13.588;2023-04-22T09:45:27;18.29;54.62
68977;SHT31;56029;52.568;13.588;2023-04-22T09:47:55;18.44;53.32
68977;SHT31;56029;52.568;13.588;2023-04-22T09:50:26;18.53;52.15
68977;SHT31;56029;52.568;13.588;2023-04-22T09:52:57;18.56;52.91
68977;SHT31;56029;52.568;13.588;2023-04-22T09:55:24;18.66;54.10
68977;SHT31;56029;52.568;13.588;2023-04-22T09:57:54;18.72;50.76
68977;SHT31;56029;52.568;13.588;2023-04-22T10:00:23;18.66;51.20
68977;SHT31;56029;52.568;13.588;2023-04-22T10:02:49;18.72;53.64
68977;SHT31;56029;52.568;13.588;2023-04-22T10:05:15;18.67;52.47
68977;SHT31;56029;52.568;13.588;2023-04-22T10:07:41;18.72;51.27
68977;SHT31;56029;52.568;13.588;2023-04-22T10:10:07;18.82;52.51
68977;SHT31;56029;52.568;13.588;2023-04-22T10:12:34;18.92;51.49
68977;SHT31;56029;52.568;13.588;2023-04-22T10:15:01;19.04;50.14
68977;SHT31;56029;52.568;13.588;2023-04-22T10:17:31;19.04;49.52
68977;SHT31;56029;52.568;13.588;2023-04-22T10:20:01;19.25;50.44
68977;SHT31;56029;52.568;13.588;2023-04-22T10:22:33;19.25;50.08
68977;SHT31;56029;52.568;13.588;2023-04-22T10:24:59;19.35;49.07
68977;SHT31;56029;52.568;13.588;2023-04-22T10:27:24;19.32;50.53
68977;SHT31;56029;52.568;13.588;2023-04-22T10:29:50;19.31;51.17
68977;SHT31;56029;52.568;13.588;2023-04-22T10:34:42;19.32;50.05
68977;SHT31;56029;52.568;13.588;2023-04-22T10:37:11;19.48;49.18
68977;SHT31;56029;52.568;13.588;2023-04-22T10:39:38;19.44;49.60
68977;SHT31;56029;52.568;13.588;2023-04-22T10:42:10;19.50;51.41
68977;SHT31;56029;52.568;13.588;2023-04-22T10:44:51;19.65;49.11
68977;SHT31;56029;52.568;13.588;2023-04-22T10:49:49;19.71;47.35
68977;SHT31;56029;52.568;13.588;2023-04-22T10:52:28;19.81;48.71
68977;SHT31;56029;52.568;13.588;2023-04-22T10:54:55;19.94;47.03
68977;SHT31;56029;52.568;13.588;2023-04-22T10:57:21;20.02;48.05
68977;SHT31;56029;52.568;13.588;2023-04-22T11:02:16;20.16;46.47
68977;SHT31;56029;52.568;13.588;2023-04-22T11:04:42;20.13;48.42
68977;SHT31;56029;52.568;13.588;2023-04-22T11:15:12;20.20;47.46
68977;SHT31;56029;52.568;13.588;2023-04-22T11:17:40;20.14;47.76
68977;SHT31;56029;52.568;13.588;2023-04-22T11:20:07;20.16;47.09
68977;SHT31;56029;52.568;13.588;2023-04-22T11:22:37;20.20;45.56
68977;SHT31;56029;52.568;13.588;2023-04-22T11:25:04;20.29;47.17
68977;SHT31;56029;52.568;13.588;2023-04-22T11:27:30;20.37;46.76
68977;SHT31;56029;52.568;13.588;2023-04-22T11:32:36;20.64;48.24
68977;SHT31;56029;52.568;13.588;2023-04-22T11:35:07;20.69;47.22
68977;SHT31;56029;52.568;13.588;2023-04-22T11:37:41;20.67;45.18
68977;SHT31;56029;52.568;13.588;2023-04-22T11:40:12;20.64;45.27
68977;SHT31;56029;52.568;13.588;2023-04-22T11:42:38;20.60;45.26
68977;SHT31;56029;52.568;13.588;2023-04-22T11:45:05;20.54;45.93
68977;SHT31;56029;52.568;13.588;2023-04-22T11:47:32;20.58;47.31
68977;SHT31;56029;52.568;13.588;2023-04-22T11:50:00;20.57;46.31
68977;SHT31;56029;52.568;13.588;2023-04-22T11:52:49;20.52;46.96
68977;SHT31;56029;52.568;13.588;2023-04-22T11:57:42;20.58;46.63
68977;SHT31;56029;52.568;13.588;2023-04-22T12:00:12;20.54;43.78
68977;SHT31;56029;52.568;13.588;2023-04-22T12:02:39;20.58;44.08
68977;SHT31;56029;52.568;13.588;2023-04-22T12:05:08;20.78;46.76
68977;SHT31;56029;52.568;13.588;2023-04-22T12:07:35;20.91;45.75
68977;SHT31;56029;52.568;13.588;2023-04-22T12:10:01;20.99;45.52
68977;SHT31;56029;52.568;13.588;2023-04-22T12:12:27;20.99;48.20
68977;SHT31;56029;52.568;13.588;2023-04-22T12:14:53;20.95;47.10
68977;SHT31;56029;52.568;13.588;2023-04-22T12:17:25;20.92;45.95
68977;SHT31;56029;52.568;13.588;2023-04-22T12:19:54;20.94;48.35
68977;SHT31;56029;52.568;13.588;2023-04-22T12:22:27;20.89;45.54
68977;SHT31;56029;52.568;13.588;2023-04-22T12:24:53;20.91;44.97
68977;SHT31;56029;52.568;13.588;2023-04-22T12:27:19;20.99;45.03
68977;SHT31;56029;52.568;13.588;2023-04-22T12:29:53;21.10;48.15
68977;SHT31;56029;52.568;13.588;2023-04-22T12:32:20;21.20;47.05
68977;SHT31;56029;52.568;13.588;2023-04-22T12:34:48;21.26;42.77
68977;SHT31;56029;52.568;13.588;2023-04-22T12:37:17;21.25;44.94
68977;SHT31;56029;52.568;13.588;2023-04-22T12:39:43;21.40;44.00
68977;SHT31;56029;52.568;13.588;2023-04-22T12:42:09;21.50;44.22
68977;SHT31;56029;52.568;13.588;2023-04-22T12:44:37;21.50;41.78
68977;SHT31;56029;52.568;13.588;2023-04-22T12:47:03;21.50;43.71
68977;SHT31;56029;52.568;13.588;2023-04-22T12:49:28;21.43;44.15
68977;SHT31;56029;52.568;13.588;2023-04-22T12:51:57;21.36;43.72
68977;SHT31;56029;52.568;13.588;2023-04-22T12:54:23;21.33;44.03
68977;SHT31;56029;52.568;13.588;2023-04-22T12:56:48;21.43;44.88
68977;SHT31;56029;52.568;13.588;2023-04-22T12:59:14;21.53;43.07
68977;SHT31;56029;52.568;13.588;2023-04-22T13:01:40;21.61;41.46
68977;SHT31;56029;52.568;13.588;2023-04-22T13:04:08;21.58;40.74
68977;SHT31;56029;52.568;13.588;2023-04-22T13:06:36;21.49;42.69
68977;SHT31;56029;52.568;13.588;2023-04-22T13:09:03;21.50;44.25
68977;SHT31;56029;52.568;13.588;2023-04-22T13:11:28;21.58;44.50
68977;SHT31;56029;52.568;13.588;2023-04-22T13:13:54;21.61;44.63
68977;SHT31;56029;52.568;13.588;2023-04-22T13:16:19;21.64;44.57
68977;SHT31;56029;52.568;13.588;2023-04-22T13:18:45;21.58;41.98
68977;SHT31;56029;52.568;13.588;2023-04-22T13:21:10;21.64;44.91
68977;SHT31;56029;52.568;13.588;2023-04-22T13:23:38;21.71;45.46
68977;SHT31;56029;52.568;13.588;2023-04-22T13:26:04;21.71;41.62
68977;SHT31;56029;52.568;13.588;2023-04-22T13:28:30;21.74;43.50
68977;SHT31;56029;52.568;13.588;2023-04-22T13:30:55;21.73;44.40
68977;SHT31;56029;52.568;13.588;2023-04-22T13:33:21;21.58;43.42
68977;SHT31;56029;52.568;13.588;2023-04-22T13:35:47;21.58;43.80
68977;SHT31;56029;52.568;13.588;2023-04-22T13:38:12;21.60;39.89
68977;SHT31;56029;52.568;13.588;2023-04-22T13:40:38;21.61;42.38
68977;SHT31;56029;52.568;13.588;2023-04-22T13:43:03;21.73;42.57
68977;SHT31;56029;52.568;13.588;2023-04-22T13:45:29;21.68;41.01
68977;SHT31;56029;52.568;13.588;2023-04-22T13:47:57;21.70;45.30
68977;SHT31;56029;52.568;13.588;2023-04-22T13:50:23;21.64;43.19
68977;SHT31;56029;52.568;13.588;2023-04-22T13:52:48;21.75;43.21
68977;SHT31;56029;52.568;13.588;2023-04-22T13:55:14;21.74;42.23
68977;SHT31;56029;52.568;13.588;2023-04-22T13:57:40;21.87;43.70
68977;SHT31;56029;52.568;13.588;2023-04-22T14:00:06;21.80;43.04
68977;SHT31;56029;52.568;13.588;2023-04-22T14:02:31;21.75;44.48
68977;SHT31;56029;52.568;13.588;2023-04-22T14:04:57;21.70;40.43
68977;SHT31;56029;52.568;13.588;2023-04-22T14:07:23;21.77;43.28
68977;SHT31;56029;52.568;13.588;2023-04-22T14:09:48;21.73;40.15
68977;SHT31;56029;52.568;13.588;2023-04-22T14:12:14;21.73;43.05
68977;SHT31;56029;52.568;13.588;2023-04-22T14:14:39;21.75;42.98
68977;SHT31;56029;52.568;13.588;2023-04-22T14:17:05;21.75;43.40
68977;SHT31;56029;52.568;13.588;2023-04-22T14:19:34;21.73;43.90
68977;SHT31;56029;52.568;13.588;2023-04-22T14:22:02;21.80;42.02
68977;SHT31;56029;52.568;13.588;2023-04-22T14:24:28;21.70;40.85
68977;SHT31;56029;52.568;13.588;2023-04-22T14:26:58;21.75;44.05
68977;SHT31;56029;52.568;13.588;2023-04-22T14:29:24;21.83;43.05
68977;SHT31;56029;52.568;13.588;2023-04-22T14:31:49;21.91;44.14
68977;SHT31;56029;52.568;13.588;2023-04-22T14:34:16;21.91;45.00
68977;SHT31;56029;52.568;13.588;2023-04-22T14:36:43;21.97;44.97
68977;SHT31;56029;52.568;13.588;2023-04-22T14:39:09;21.97;41.85
68977;SHT31;56029;52.568;13.588;2023-04-22T14:41:35;21.98;42.71
68977;SHT31;56029;52.568;13.588;2023-04-22T14:44:01;21.98;43.38
68977;SHT31;56029;52.568;13.588;2023-04-22T14:46:29;22.00;42.98
68977;SHT31;56029;52.568;13.588;2023-04-22T14:48:55;21.98;40.81
68977;SHT31;56029;52.568;13.588;2023-04-22T14:51:20;21.91;43.52
68977;SHT31;56029;52.568;13.588;2023-04-22T14:53:47;21.95;42.05
68977;SHT31;56029;52.568;13.588;2023-04-22T14:56:13;21.95;40.63
68977;SHT31;56029;52.568;13.588;2023-04-22T14:58:39;22.00;41.84
68977;SHT31;56029;52.568;13.588;2023-04-22T15:01:05;21.98;41.16
68977;SHT31;56029;52.568;13.588;2023-04-22T15:03:30;21.97;42.66
68977;SHT31;56029;52.568;13.588;2023-04-22T15:05:56;22.00;43.16
68977;SHT31;56029;52.568;13.588;2023-04-22T15:08:22;22.09;42.59
68977;SHT31;56029;52.568;13.588;2023-04-22T15:10:49;22.12;41.18
68977;SHT31;56029;52.568;13.588;2023-04-22T15:13:16;22.06;43.79
68977;SHT31;56029;52.568;13.588;2023-04-22T15:15:41;22.06;42.58
68977;SHT31;56029;52.568;13.588;2023-04-22T15:18:07;22.11;38.90
68977;SHT31;56029;52.568;13.588;2023-04-22T15:20:33;22.08;41.09
68977;SHT31;56029;52.568;13.588;2023-04-22T15:23:00;22.15;40.74
68977;SHT31;56029;52.568;13.588;2023-04-22T15:25:26;22.18;42.43
68977;SHT31;56029;52.568;13.588;2023-04-22T15:27:52;22.15;41.68
68977;SHT31;56029;52.568;13.588;2023-04-22T15:30:23;22.16;40.98
68977;SHT31;56029;52.568;13.588;2023-04-22T15:32:49;22.18;42.01
68977;SHT31;56029;52.568;13.588;2023-04-22T15:35:14;22.24;41.79
68977;SHT31;56029;52.568;13.588;2023-04-22T15:37:40;22.25;42.23
68977;SHT31;56029;52.568;13.588;2023-04-22T15:40:06;22.25;41.12